createdAt,value
2022-10-06T00:00:24.266Z,12.81
2022-10-06T00:02:53.499Z,12.90
2022-10-06T00:05:22.695Z,13.03
2022-10-06T00:07:53.417Z,13.09
2022-10-06T00:10:22.736Z,13.15
2022-10-06T00:12:52.652Z,13.16
2022-10-06T00:15:24.802Z,12.74
2022-10-06T00:17:54.365Z,12.70
2022-10-06T00:20:23.967Z,12.77
2022-10-06T00:22:56.418Z,12.98
2022-10-06T00:25:28.280Z,12.52
2022-10-06T00:27:57.806Z,13.02
2022-10-06T00:30:29.727Z,12.65
2022-10-06T00:33:01.071Z,12.68
2022-10-06T00:35:32.547Z,12.54
2022-10-06T00:38:03.688Z,12.47
2022-10-06T00:40:33.765Z,12.63
2022-10-06T00:43:05.903Z,12.74
2022-10-06T00:45:38.017Z,12.92
2022-10-06T00:48:11.678Z,12.67
2022-10-06T00:50:41.167Z,12.50
2022-10-06T00:53:12.138Z,12.43
2022-10-06T00:55:41.275Z,12.31
2022-10-06T00:58:11.846Z,12.59
2022-10-06T01:00:41.193Z,12.54
2022-10-06T01:03:13.830Z,12.42
2022-10-06T01:05:47.007Z,12.41
2022-10-06T01:08:18.050Z,12.60
2022-10-06T01:10:47.177Z,12.90
2022-10-06T01:13:17.651Z,12.24
2022-10-06T01:15:51.964Z,12.58
2022-10-06T01:18:23.432Z,12.33
2022-10-06T01:20:55.707Z,12.76
2022-10-06T01:23:26.300Z,12.48
2022-10-06T01:25:55.471Z,12.76
2022-10-06T01:28:24.893Z,12.23
2022-10-06T01:30:55.741Z,12.49
2022-10-06T01:33:25.858Z,12.13
2022-10-06T01:35:55.514Z,12.39
2022-10-06T01:38:26.935Z,12.52
2022-10-06T01:40:56.534Z,12.07
2022-10-06T01:43:25.796Z,12.49
2022-10-06T01:45:56.306Z,12.58
2022-10-06T01:48:27.039Z,12.56
2022-10-06T01:50:57.232Z,12.35
2022-10-06T01:53:28.356Z,12.30
2022-10-06T01:56:00.274Z,12.50
2022-10-06T01:58:30.318Z,12.62
2022-10-06T02:00:59.850Z,12.03
2022-10-06T02:03:29.049Z,11.96
2022-10-06T02:05:58.461Z,12.18
2022-10-06T02:08:29.343Z,12.55
2022-10-06T02:10:58.961Z,12.38
2022-10-06T02:13:30.027Z,12.52
2022-10-06T02:16:00.333Z,12.47
2022-10-06T02:18:30.597Z,11.93
2022-10-06T02:21:00.261Z,12.40
2022-10-06T02:23:31.649Z,12.39
2022-10-06T02:26:01.741Z,12.23
2022-10-06T02:28:32.197Z,11.97
2022-10-06T02:31:05.582Z,11.72
2022-10-06T02:33:35.429Z,11.79
2022-10-06T02:36:06.644Z,12.25
2022-10-06T02:38:37.438Z,11.85
2022-10-06T02:41:07.726Z,11.60
2022-10-06T02:43:38.090Z,12.07
2022-10-06T02:46:09.518Z,11.93
2022-10-06T02:48:39.828Z,11.66
2022-10-06T02:51:11.614Z,11.90
2022-10-06T02:53:43.598Z,11.78
2022-10-06T02:56:16.186Z,11.75
2022-10-06T02:58:46.011Z,11.69
2022-10-06T03:01:17.405Z,11.54
2022-10-06T03:03:48.011Z,11.93
2022-10-06T03:06:25.412Z,11.65
2022-10-06T03:08:58.644Z,11.74
2022-10-06T03:11:29.617Z,11.79
2022-10-06T03:13:59.249Z,11.37
2022-10-06T03:16:30.591Z,11.64
2022-10-06T03:19:00.594Z,11.65
2022-10-06T03:21:31.630Z,11.88
2022-10-06T03:24:03.050Z,11.76
2022-10-06T03:26:33.919Z,11.83
2022-10-06T03:29:05.943Z,11.67
2022-10-06T03:31:38.940Z,11.49
2022-10-06T03:34:08.501Z,12.04
2022-10-06T03:36:39.560Z,11.96
2022-10-06T03:39:10.578Z,11.50
2022-10-06T03:41:40.483Z,11.80
2022-10-06T03:44:10.216Z,12.14
2022-10-06T03:46:39.765Z,12.13
2022-10-06T03:49:09.815Z,11.63
2022-10-06T03:51:40.588Z,12.02
2022-10-06T03:54:12.652Z,12.18
2022-10-06T03:56:43.354Z,12.03
2022-10-06T03:59:14.186Z,12.20
2022-10-06T04:01:45.582Z,11.51
2022-10-06T04:04:14.923Z,11.39
2022-10-06T04:06:45.169Z,11.50
2022-10-06T04:09:18.363Z,11.78
2022-10-06T04:11:47.659Z,11.34
2022-10-06T04:14:17.742Z,11.78
2022-10-06T04:16:48.666Z,11.96
2022-10-06T04:19:19.058Z,11.93
2022-10-06T04:21:48.961Z,11.39
2022-10-06T04:24:19.674Z,11.19
2022-10-06T04:26:50.262Z,11.37
2022-10-06T04:29:19.607Z,11.24
2022-10-06T04:31:50.664Z,11.26
2022-10-06T04:34:21.069Z,11.43
2022-10-06T04:36:50.597Z,11.52
2022-10-06T04:39:21.647Z,11.18
2022-10-06T04:41:51.274Z,11.81
2022-10-06T04:44:21.717Z,11.64
2022-10-06T04:46:54.576Z,11.82
2022-10-06T04:49:24.309Z,11.66
2022-10-06T04:51:53.606Z,11.34
2022-10-06T04:54:24.263Z,11.80
2022-10-06T04:56:54.030Z,11.59
2022-10-06T04:59:47.873Z,11.69
2022-10-06T05:02:18.243Z,11.79
2022-10-06T05:04:49.595Z,11.22
2022-10-06T05:07:19.381Z,11.16
2022-10-06T05:09:54.418Z,11.88
2022-10-06T05:12:24.169Z,11.51
2022-10-06T05:15:30.967Z,11.86
2022-10-06T05:18:02.115Z,11.24
2022-10-06T05:20:31.747Z,11.61
2022-10-06T05:23:10.681Z,11.50
2022-10-06T05:25:55.807Z,11.26
2022-10-06T05:28:26.164Z,11.45
2022-10-06T06:18:45.922Z,12.57
2022-10-06T06:21:16.005Z,12.56
2022-10-06T06:23:47.601Z,12.06
2022-10-06T06:26:18.722Z,12.10
2022-10-06T06:28:48.737Z,12.50
2022-10-06T06:31:21.502Z,12.51
2022-10-06T06:33:53.953Z,12.62
2022-10-06T06:36:26.029Z,12.81
2022-10-06T06:38:58.770Z,12.70
2022-10-06T06:41:29.850Z,12.46
2022-10-06T06:44:00.221Z,12.07
2022-10-06T06:46:32.364Z,12.54
2022-10-06T06:49:05.412Z,12.70
2022-10-06T06:51:35.744Z,13.03
2022-10-06T06:54:06.145Z,12.82
2022-10-06T06:56:36.066Z,13.06
2022-10-06T06:59:10.882Z,13.03
2022-10-06T07:01:50.491Z,13.32
2022-10-06T07:04:21.166Z,13.20
2022-10-06T07:06:58.155Z,13.34
2022-10-06T07:09:27.755Z,13.37
2022-10-06T07:11:57.504Z,13.16
2022-10-06T07:14:26.750Z,13.43
2022-10-06T07:38:23.464Z,13.65
2022-10-06T07:41:23.909Z,13.63
2022-10-06T07:44:23.409Z,13.55
2022-10-06T08:16:38.080Z,14.52
2022-10-06T08:19:07.620Z,14.46
2022-10-06T08:21:36.827Z,14.52
2022-10-06T08:24:06.317Z,14.63
2022-10-06T08:26:36.161Z,14.96
2022-10-06T08:29:05.838Z,15.04
2022-10-06T08:31:37.066Z,15.05
2022-10-06T08:34:11.807Z,15.19
2022-10-06T08:36:52.118Z,15.28
2022-10-06T08:39:31.454Z,15.33
2022-10-06T08:42:00.723Z,15.83
2022-10-06T08:44:34.689Z,15.77
2022-10-06T08:47:12.141Z,15.75
2022-10-06T08:49:44.910Z,15.89
2022-10-06T08:52:22.595Z,16.07
2022-10-06T08:54:59.559Z,16.09
2022-10-06T08:57:34.341Z,16.48
2022-10-06T09:00:04.277Z,16.43
2022-10-06T09:02:41.725Z,16.78
2022-10-06T09:05:14.626Z,16.65
2022-10-06T09:07:52.652Z,16.96
2022-10-06T09:10:32.029Z,17.21
2022-10-06T09:13:06.766Z,17.27
2022-10-06T09:15:41.407Z,17.23
2022-10-06T09:18:16.703Z,17.45
2022-10-06T09:20:51.131Z,17.29
2022-10-06T09:23:42.317Z,17.38
2022-10-06T09:26:14.451Z,17.91
2022-10-06T09:28:46.630Z,17.71
2022-10-06T09:31:23.064Z,17.78
2022-10-06T09:33:55.643Z,17.91
2022-10-06T09:36:24.883Z,17.95
2022-10-06T09:38:55.598Z,18.08
2022-10-06T09:41:27.694Z,18.12
2022-10-06T09:43:59.670Z,18.30
2022-10-06T09:46:39.923Z,18.35
2022-10-06T09:49:22.289Z,18.56
2022-10-06T09:52:12.272Z,18.68
2022-10-06T09:54:43.361Z,18.74
2022-10-06T09:57:16.472Z,18.87
2022-10-06T09:59:47.081Z,19.11
2022-10-06T10:02:31.150Z,19.25
2022-10-06T10:05:02.485Z,19.65
2022-10-06T10:07:33.232Z,19.85
2022-10-06T10:10:29.885Z,19.86
2022-10-06T10:13:00.482Z,20.02
2022-10-06T10:15:42.782Z,20.69
2022-10-06T10:18:16.940Z,20.65
2022-10-06T10:20:55.913Z,20.69
2022-10-06T10:23:31.567Z,20.80
2022-10-06T10:26:27.218Z,21.08
2022-10-06T10:29:33.043Z,21.23
2022-10-06T10:32:12.012Z,21.61
2022-10-06T10:35:09.746Z,21.81
2022-10-06T10:37:47.582Z,21.86
2022-10-06T10:40:36.023Z,22.04
2022-10-06T10:43:12.923Z,21.67
2022-10-06T10:45:46.350Z,21.78
2022-10-06T10:48:20.148Z,21.76
2022-10-06T10:50:57.646Z,21.69
2022-10-06T10:53:35.657Z,21.83
2022-10-06T10:56:10.442Z,21.83
2022-10-06T10:58:41.990Z,21.77
2022-10-06T11:01:25.899Z,22.00
2022-10-06T11:03:58.986Z,22.40
2022-10-06T11:06:51.597Z,22.80
2022-10-06T11:09:27.629Z,22.93
2022-10-06T11:12:29.859Z,23.39
2022-10-06T11:15:02.274Z,23.54
2022-10-06T12:17:44.071Z,25.54
2022-10-06T12:20:17.999Z,25.26
2022-10-06T12:22:52.384Z,25.50
2022-10-06T12:25:26.964Z,25.53
2022-10-06T12:28:05.355Z,25.16
2022-10-06T12:30:47.267Z,24.82
2022-10-06T12:33:21.273Z,25.17
2022-10-06T12:36:03.161Z,25.78
2022-10-06T12:38:44.469Z,25.34
2022-10-06T12:41:14.691Z,25.61
2022-10-06T12:43:55.321Z,25.81
2022-10-06T12:46:41.265Z,25.82
2022-10-06T12:49:45.017Z,26.30
2022-10-06T12:52:40.811Z,26.52
2022-10-06T12:55:41.247Z,25.86
2022-10-06T12:58:19.746Z,25.48
2022-10-06T13:00:49.482Z,26.10
2022-10-06T13:03:21.034Z,26.20
2022-10-06T13:05:54.474Z,26.09
2022-10-06T13:08:25.571Z,26.05
2022-10-06T13:11:17.533Z,26.53
2022-10-06T13:13:50.725Z,26.69
2022-10-06T14:17:23.889Z,24.72
2022-10-06T14:19:56.318Z,24.56
2022-10-06T14:22:33.106Z,24.38
2022-10-06T14:25:02.848Z,24.35
2022-10-06T14:27:32.117Z,24.23
2022-10-06T14:30:01.793Z,24.11
2022-10-06T14:32:32.834Z,24.34
2022-10-06T14:35:02.703Z,24.03
2022-10-06T14:37:33.823Z,23.99
2022-10-06T14:40:03.457Z,23.62
2022-10-06T14:42:32.857Z,23.38
2022-10-06T14:45:02.973Z,23.48
2022-10-06T14:47:33.853Z,23.52
2022-10-06T14:50:03.224Z,23.27
2022-10-06T14:52:32.787Z,23.25
2022-10-06T14:55:02.274Z,23.44
2022-10-06T14:57:31.555Z,23.16
2022-10-06T15:00:01.192Z,23.17
2022-10-06T15:02:32.711Z,23.08
2022-10-06T15:05:01.945Z,22.98
2022-10-06T15:07:49.019Z,22.81
2022-10-06T15:10:18.443Z,22.78
2022-10-06T15:12:47.759Z,22.76
2022-10-06T15:25:29.194Z,22.48
2022-10-06T15:29:04.651Z,22.25
2022-10-06T16:15:17.792Z,20.70
2022-10-06T16:17:46.870Z,20.64
2022-10-06T16:20:18.228Z,20.48
2022-10-06T16:22:47.406Z,20.40
2022-10-06T16:25:16.605Z,20.24
2022-10-06T16:27:45.754Z,20.16
2022-10-06T16:30:16.411Z,19.99
2022-10-06T16:32:45.612Z,19.92
2022-10-06T16:35:18.226Z,19.68
2022-10-06T16:37:50.424Z,19.66
2022-10-06T16:40:19.707Z,19.67
2022-10-06T16:42:48.841Z,19.58
2022-10-06T16:45:20.031Z,19.51
2022-10-06T16:47:50.695Z,19.48
2022-10-06T16:50:19.923Z,19.52
2022-10-06T16:52:48.776Z,19.36
2022-10-06T16:55:18.240Z,19.19
2022-10-06T16:57:47.636Z,19.12
2022-10-06T17:00:18.681Z,19.05
2022-10-06T17:02:48.207Z,18.97
2022-10-06T17:05:17.884Z,18.90
2022-10-06T17:07:47.211Z,18.79
2022-10-06T17:10:20.597Z,18.71
2022-10-06T17:12:50.854Z,18.64
2022-10-06T17:15:21.586Z,18.40
2022-10-06T17:17:50.925Z,18.53
2022-10-06T17:20:20.722Z,18.41
2022-10-06T17:22:50.320Z,18.33
2022-10-06T17:25:19.957Z,18.27
2022-10-06T17:27:49.256Z,18.22
2022-10-06T17:30:20.965Z,18.24
2022-10-06T17:32:51.646Z,18.25
2022-10-06T17:35:21.736Z,18.15
2022-10-06T17:37:51.368Z,18.10
2022-10-06T17:40:20.722Z,18.01
2022-10-06T17:42:49.954Z,17.99
2022-10-06T17:45:21.384Z,17.96
2022-10-06T17:47:52.933Z,17.90
2022-10-06T17:50:57.361Z,17.86
2022-10-06T17:53:27.571Z,17.79
2022-10-06T17:55:58.527Z,17.76
2022-10-06T17:58:29.894Z,17.73
2022-10-06T18:01:06.003Z,17.67
2022-10-06T18:03:41.696Z,17.63
2022-10-06T18:06:12.215Z,17.67
2022-10-06T18:08:42.885Z,17.61
2022-10-06T18:11:30.345Z,17.52
2022-10-06T18:14:00.526Z,17.44
2022-10-06T18:16:32.315Z,17.40
2022-10-06T18:19:03.980Z,17.36
2022-10-06T18:21:37.392Z,17.36
2022-10-06T18:24:08.686Z,17.27
2022-10-06T18:26:38.413Z,17.24
2022-10-06T18:29:08.788Z,17.23
2022-10-06T18:31:39.233Z,17.20
2022-10-06T18:37:01.605Z,17.19
2022-10-06T18:39:32.094Z,17.13
2022-10-06T18:42:09.344Z,17.00
2022-10-06T18:44:56.736Z,16.87
2022-10-06T18:47:45.503Z,16.74
2022-10-06T18:50:16.646Z,16.77
2022-10-06T18:52:45.970Z,16.78
2022-10-06T18:55:15.511Z,16.79
2022-10-06T18:57:45.752Z,16.76
2022-10-06T19:00:15.495Z,16.76
2022-10-06T19:02:48.289Z,16.73
2022-10-06T19:05:19.497Z,16.76
2022-10-06T19:07:50.916Z,16.77
2022-10-06T19:10:20.960Z,16.64
2022-10-06T19:12:53.761Z,16.65
2022-10-06T19:15:23.355Z,16.59
2022-10-06T19:17:53.817Z,16.41
2022-10-06T19:20:24.754Z,16.40
2022-10-06T19:22:54.672Z,16.35
2022-10-06T19:25:26.886Z,16.28
2022-10-06T19:27:56.381Z,16.28
2022-10-06T19:30:25.956Z,16.29
2022-10-06T19:32:55.293Z,16.29
2022-10-06T19:35:26.128Z,16.19
2022-10-06T19:37:58.019Z,16.16
2022-10-06T19:40:27.965Z,16.12
2022-10-06T19:42:56.187Z,16.23
2022-10-06T19:45:25.184Z,16.12
2022-10-06T19:47:55.406Z,16.09
2022-10-06T19:50:26.193Z,16.08
2022-10-06T19:52:55.526Z,16.07
2022-10-06T19:55:25.231Z,15.99
2022-10-06T19:57:54.781Z,16.12
2022-10-06T20:00:24.476Z,16.03
2022-10-06T20:02:53.733Z,15.99
2022-10-06T20:05:22.954Z,15.76
2022-10-06T20:07:53.973Z,15.91
2022-10-06T20:10:22.973Z,16.05
2022-10-06T20:12:52.345Z,15.81
2022-10-06T20:15:22.759Z,15.82
2022-10-06T20:17:52.110Z,15.76
2022-10-06T20:20:21.542Z,15.79
2022-10-06T20:22:54.025Z,15.66
2022-10-06T20:25:23.815Z,15.57
2022-10-06T20:27:52.949Z,15.58
2022-10-06T20:30:22.345Z,15.54
2022-10-06T20:32:53.634Z,15.54
2022-10-06T20:35:22.766Z,15.63
2022-10-06T20:37:56.189Z,15.58
2022-10-06T20:40:39.425Z,15.42
2022-10-06T20:43:08.865Z,15.47
2022-10-06T20:45:38.645Z,15.70
2022-10-06T20:48:07.849Z,15.44
2022-10-06T20:50:37.295Z,15.50
2022-10-06T20:53:08.026Z,15.49
2022-10-06T20:55:37.308Z,15.36
2022-10-06T20:58:06.601Z,15.43
2022-10-06T21:00:35.771Z,15.49
2022-10-06T21:03:05.252Z,15.28
2022-10-06T21:05:34.427Z,15.35
2022-10-06T21:08:04.027Z,15.28
2022-10-06T21:10:34.808Z,15.21
2022-10-06T21:13:04.463Z,15.16
2022-10-06T21:15:33.604Z,15.37
2022-10-06T21:18:05.735Z,15.12
2022-10-06T21:20:35.219Z,15.13
2022-10-06T21:23:10.776Z,15.29
2022-10-06T22:10:39.044Z,14.61
2022-10-06T22:25:31.233Z,14.77
2022-10-06T22:28:01.731Z,14.71
2022-10-06T22:30:30.756Z,14.68
2022-10-06T22:33:00.106Z,14.50
2022-10-06T22:35:29.154Z,14.70
2022-10-06T22:37:58.410Z,14.71
2022-10-06T22:40:27.412Z,14.69
2022-10-06T22:42:56.590Z,14.85
2022-10-06T22:45:27.211Z,15.10
2022-10-06T22:47:56.279Z,14.95
2022-10-06T22:50:25.339Z,14.67
2022-10-06T22:52:54.679Z,14.58
2022-10-06T22:55:24.082Z,14.61
2022-10-06T22:57:53.801Z,14.78
2022-10-06T23:00:46.961Z,14.73
